Gunnison, CO

3:16 AM MDT on September 23, 2014 (GMT -0600)
Aspen-Pitkin County / Sardy Field | Change Station
CLOSE
Current Station
Airport
Location: Aspen,
Elevation: 7822 ft
Nearby Weather Stations

Elev 7822 ft 39.23 °N, 106.87 °W | Updated 23 minutes ago

Overcast
Overcast
49 °F
Feels Like 49 °F
N
6
Wind Variable Wind from South

Today
High -- | Low -- °F
--% Chance of Precip.
Yesterday
High -- | Low -- °F
Precip. -- in
6:56 AM 7:03 PM
Waning Crescent, 1% visible
Pressure 30.06 in
Visibility 10.0 miles
Clouds Scattered Clouds 6500 ft
Overcast 9000 ft
Dew Point 44 °F
Humidity 83%
Rainfall 0.00 in
Snow Depth Not available.
UV 0 out of 12
Pollen 4.70 out of 12
Air Quality Not available.
Flu Activity Not available.
METAR KASE 230853Z AUTO 19005KT 10SM SCT065 OVC090 09/07 A3033 RMK AO2 SLP177 T00940067 58002

More Conditions Fewer Conditions

Pressure 30.06 in
Visibility 10.0 miles
Clouds Scattered Clouds 6500 ft
Overcast 9000 ft
Dew Point 44 °F
Humidity 83%
Rainfall 0.00 in
Snow Depth Not available.
UV 0 out of 12
Pollen 4.70 out of 12
Air Quality Not available.
Flu Activity Not available.
METAR KASE 230853Z AUTO 19005KT 10SM SCT065 OVC090 09/07 A3033 RMK AO2 SLP177 T00940067 58002

More Conditions Fewer Conditions

10-Day Weather Forecast

Almanac

Astronomy

Sep. 23, 2014 Rise Set
Actual Time 6:56 AM MDT 7:03 PM MDT
Civil Twilight 6:29 AM MDT 7:29 PM MDT
Nautical Twilight 5:59 AM MDT 8:00 PM MDT
Astronomical Twilight 5:27 AM MDT 8:31 PM MDT
Moon 6:23 AM MDT 6:43 PM MDT
Length of Visible Light 12h 59m
Length of Day
12h 06m
Tomorrow will be 2m 28s shorter.
Waning Crescent, 1% of the Moon is Illuminated
Today
Waning Crescent
Sep 24
New
Oct 1
First Quarter
Oct 8
Full
Oct 15
Last Quarter

Today's Extremes

State Highs State Lows

Community

WunderPhotos

Upload Photos

1,755,643 photos uploaded!

Nearby

Snow Depth

Station Depth Elevation
Ute Creek 1 in 10650 ft
Grayback 1 in 11620 ft
Scotch Creek 0 in 9100 ft
Echo Lake 0 in 10600 ft
Beaver Divide 0 in 8280 ft

Earthquake Activity

City Distance Mag. Time & Date
No recent earthquake activity has been reported nearby.
Minimum magnitude displayed is 2.5.

Coastal Water Temperatures

Place Temperature
No Stations Reporting

Nearby Weather Stations